createdAt,value
2022-11-19T00:01:03.188Z,-3.36
2022-11-19T00:03:30.530Z,-3.36
2022-11-19T00:06:02.012Z,-3.37
2022-11-19T00:08:28.293Z,-3.37
2022-11-19T00:10:54.584Z,-3.35
2022-11-19T00:13:20.888Z,-3.32
2022-11-19T00:15:47.241Z,-3.23
2022-11-19T00:18:13.565Z,-3.17
2022-11-19T00:20:39.852Z,-3.07
2022-11-19T00:23:06.141Z,-2.97
2022-11-19T00:25:33.418Z,-2.90
2022-11-19T00:27:59.714Z,-2.83
2022-11-19T00:30:47.136Z,-2.79
2022-11-19T00:33:12.392Z,-2.72
2022-11-19T00:35:38.691Z,-2.66
2022-11-19T00:38:05.058Z,-2.60
2022-11-19T00:40:31.356Z,-2.59
2022-11-19T00:43:16.107Z,-2.58
2022-11-19T00:45:44.478Z,-2.54
2022-11-19T00:48:10.859Z,-2.47
2022-11-19T00:50:37.142Z,-2.39
2022-11-19T00:53:03.735Z,-2.35
2022-11-19T00:55:30.220Z,-2.34
2022-11-19T00:57:56.535Z,-2.28
2022-11-19T01:00:22.979Z,-2.26
2022-11-19T01:02:49.274Z,-2.26
2022-11-19T01:05:15.600Z,-2.26
2022-11-19T01:07:42.211Z,-2.24
2022-11-19T01:10:08.722Z,-2.20
2022-11-19T01:12:54.971Z,-2.18
2022-11-19T01:15:21.255Z,-2.14
2022-11-19T01:17:47.542Z,-2.06
2022-11-19T01:20:14.066Z,-2.01
2022-11-19T01:22:40.388Z,-1.90
2022-11-19T01:25:06.825Z,-1.79
2022-11-19T01:27:33.141Z,-1.66
2022-11-19T01:29:59.430Z,-1.51
2022-11-19T01:32:25.707Z,-1.39
2022-11-19T01:34:53.382Z,-1.37
2022-11-19T01:37:19.668Z,-1.38
2022-11-19T01:39:45.967Z,-1.39
2022-11-19T01:42:49.834Z,-1.43
2022-11-19T01:45:22.315Z,-1.42
2022-11-19T01:47:48.612Z,-1.39
2022-11-19T01:50:14.941Z,-1.38
2022-11-19T01:52:41.345Z,-1.36
2022-11-19T01:55:08.511Z,-1.33
2022-11-19T01:57:35.342Z,-1.31
2022-11-19T02:00:01.811Z,-1.25
2022-11-19T02:02:28.133Z,-1.23
2022-11-19T02:04:57.063Z,-1.19
2022-11-19T02:07:26.251Z,-1.15
2022-11-19T02:09:52.617Z,-1.09
2022-11-19T02:12:18.957Z,-1.06
2022-11-19T02:15:04.068Z,-0.99
2022-11-19T02:17:30.349Z,-0.94
2022-11-19T02:20:08.990Z,-0.89
2022-11-19T02:22:38.054Z,-0.86
2022-11-19T02:25:14.754Z,-0.86
2022-11-19T02:28:00.041Z,-0.86
2022-11-19T02:30:29.139Z,-0.87
2022-11-19T02:33:04.442Z,-0.86
2022-11-19T02:35:42.854Z,-0.83
2022-11-19T02:38:09.121Z,-0.81
2022-11-19T02:40:40.343Z,-0.80
2022-11-19T02:43:06.595Z,-0.79
2022-11-19T02:45:39.350Z,-0.80
2022-11-19T02:48:17.842Z,-0.80
2022-11-19T02:50:46.208Z,-0.81
2022-11-19T02:53:12.594Z,-0.78
2022-11-19T02:55:39.128Z,-0.79
2022-11-19T02:58:05.431Z,-0.77
2022-11-19T03:01:00.234Z,-0.76
2022-11-19T03:03:45.472Z,-0.78
2022-11-19T03:06:14.601Z,-0.75
2022-11-19T03:08:40.955Z,-0.75
2022-11-19T03:11:15.163Z,-0.74
2022-11-19T03:14:26.274Z,-0.73
2022-11-19T03:16:55.399Z,-0.73
2022-11-19T03:19:36.411Z,-0.72
2022-11-19T03:22:02.695Z,-0.74
2022-11-19T03:24:41.572Z,-0.77
2022-11-19T03:27:10.964Z,-0.84
2022-11-19T03:29:41.221Z,-0.93
2022-11-19T03:32:11.198Z,-0.95
2022-11-19T03:34:39.075Z,-0.97
2022-11-19T03:37:06.862Z,-1.02
2022-11-19T03:39:35.014Z,-1.03
2022-11-19T03:42:01.647Z,-1.03
2022-11-19T03:44:27.929Z,-1.04
2022-11-19T03:47:00.620Z,-1.07
2022-11-19T03:49:31.521Z,-1.10
2022-11-19T03:52:18.437Z,-1.13
2022-11-19T03:54:44.986Z,-1.19
2022-11-19T03:57:13.520Z,-1.28
2022-11-19T03:59:39.906Z,-1.29
2022-11-19T04:02:07.853Z,-1.27
2022-11-19T04:04:37.499Z,-1.28
2022-11-19T04:07:08.388Z,-1.34
2022-11-19T04:09:35.246Z,-1.38
2022-11-19T04:12:01.708Z,-1.42
2022-11-19T04:14:28.162Z,-1.44
2022-11-19T04:16:56.432Z,-1.37
2022-11-19T04:19:22.731Z,-1.36
2022-11-19T04:21:49.119Z,-1.39
2022-11-19T04:24:15.644Z,-1.46
2022-11-19T04:26:41.970Z,-1.47
2022-11-19T04:29:08.356Z,-1.50
2022-11-19T04:31:34.909Z,-1.50
2022-11-19T04:34:01.290Z,-1.49
2022-11-19T04:36:27.790Z,-1.53
2022-11-19T04:38:54.093Z,-1.60
2022-11-19T04:41:20.379Z,-1.61
2022-11-19T04:43:46.698Z,-1.64
2022-11-19T04:46:13.015Z,-1.60
2022-11-19T04:48:39.357Z,-1.63
2022-11-19T04:51:05.646Z,-1.67
2022-11-19T04:53:31.987Z,-1.72
2022-11-19T04:55:58.303Z,-1.75
2022-11-19T04:58:24.588Z,-1.79
2022-11-19T05:00:50.897Z,-1.81
2022-11-19T05:03:17.203Z,-1.76
2022-11-19T05:05:43.566Z,-1.72
2022-11-19T05:08:09.903Z,-1.72
2022-11-19T05:10:36.194Z,-1.78
2022-11-19T05:13:02.582Z,-1.83
2022-11-19T05:15:28.880Z,-1.89
2022-11-19T05:17:55.156Z,-1.90
2022-11-19T05:20:21.465Z,-1.99
2022-11-19T05:22:47.751Z,-2.03
2022-11-19T05:25:14.114Z,-2.09
2022-11-19T05:27:40.479Z,-2.16
2022-11-19T05:30:07.170Z,-2.24
2022-11-19T05:32:33.461Z,-2.23
2022-11-19T05:34:59.756Z,-2.20
2022-11-19T05:37:26.060Z,-2.20
2022-11-19T05:39:52.346Z,-2.24
2022-11-19T05:42:18.618Z,-2.19
2022-11-19T05:44:44.938Z,-2.20
2022-11-19T05:47:11.251Z,-2.23
2022-11-19T05:49:37.622Z,-2.19
2022-11-19T05:52:04.025Z,-2.19
2022-11-19T05:54:30.411Z,-2.21
2022-11-19T05:56:56.887Z,-2.21
2022-11-19T05:59:23.171Z,-2.17
2022-11-19T06:01:49.450Z,-2.22
2022-11-19T06:04:15.987Z,-2.25
2022-11-19T06:06:42.284Z,-2.26
2022-11-19T06:09:08.722Z,-2.25
2022-11-19T06:11:47.597Z,-2.29
2022-11-19T06:14:14.353Z,-2.35
2022-11-19T06:16:40.648Z,-2.42
2022-11-19T06:19:06.917Z,-2.46
2022-11-19T06:21:33.211Z,-2.49
2022-11-19T06:23:59.517Z,-2.44
2022-11-19T06:26:27.207Z,-2.42
2022-11-19T06:28:53.802Z,-2.46
2022-11-19T06:31:20.483Z,-2.43
2022-11-19T06:33:46.926Z,-2.51
2022-11-19T06:36:13.442Z,-2.47
2022-11-19T06:38:39.770Z,-2.49
2022-11-19T06:41:06.254Z,-2.47
2022-11-19T06:43:32.613Z,-2.45
2022-11-19T06:45:58.895Z,-2.44
2022-11-19T06:48:25.184Z,-2.42
2022-11-19T06:50:51.562Z,-2.43
2022-11-19T06:53:17.864Z,-2.42
2022-11-19T06:55:44.147Z,-2.45
2022-11-19T06:58:10.430Z,-2.45
2022-11-19T07:00:36.716Z,-2.43
2022-11-19T07:03:03.284Z,-2.44
2022-11-19T07:05:29.795Z,-2.44
2022-11-19T07:08:01.527Z,-2.49
2022-11-19T07:10:29.418Z,-2.48
2022-11-19T07:12:55.770Z,-2.45
2022-11-19T07:15:22.082Z,-2.47
2022-11-19T07:17:48.798Z,-2.45
2022-11-19T07:20:15.176Z,-2.46
2022-11-19T07:22:42.352Z,-2.49
2022-11-19T07:25:09.515Z,-2.53
2022-11-19T07:27:35.791Z,-2.49
2022-11-19T07:30:04.089Z,-2.44
2022-11-19T07:32:30.364Z,-2.33
2022-11-19T07:34:56.722Z,-2.22
2022-11-19T07:37:23.307Z,-2.14
2022-11-19T07:39:49.587Z,-2.09
2022-11-19T07:42:34.645Z,-2.09
2022-11-19T07:45:00.951Z,-2.13
2022-11-19T07:47:27.221Z,-2.10
2022-11-19T07:49:54.185Z,-2.10
2022-11-19T07:52:20.894Z,-2.09
2022-11-19T07:54:47.670Z,-2.03
2022-11-19T07:57:13.995Z,-1.98
2022-11-19T07:59:40.295Z,-1.92
2022-11-19T08:02:06.617Z,-1.85
2022-11-19T08:04:32.952Z,-1.78
2022-11-19T08:06:59.382Z,-1.69
2022-11-19T08:09:25.790Z,-1.55
2022-11-19T08:11:52.154Z,-1.36
2022-11-19T08:14:18.543Z,-1.12
2022-11-19T08:17:03.715Z,-0.93
2022-11-19T08:19:30.005Z,-0.73
2022-11-19T08:21:56.430Z,-0.60
2022-11-19T08:24:23.501Z,-0.49
2022-11-19T08:26:50.724Z,-0.41
2022-11-19T08:29:18.384Z,-0.35
2022-11-19T08:31:45.751Z,-0.25
2022-11-19T08:34:12.265Z,-0.14
2022-11-19T08:36:38.725Z,-0.02
2022-11-19T08:39:06.621Z,0.09
2022-11-19T08:41:51.905Z,0.18
2022-11-19T08:44:18.595Z,0.27
2022-11-19T08:46:45.212Z,0.35
2022-11-19T08:49:14.567Z,0.43
2022-11-19T08:51:40.907Z,0.53
2022-11-19T08:54:07.623Z,0.64
2022-11-19T08:56:33.881Z,0.75
2022-11-19T08:59:02.904Z,0.87
2022-11-19T09:01:29.651Z,0.99
2022-11-19T09:03:55.985Z,1.02
2022-11-19T09:06:22.437Z,1.05
2022-11-19T09:08:48.833Z,1.08
2022-11-19T09:11:16.686Z,1.11
2022-11-19T09:13:43.091Z,1.14
2022-11-19T09:16:10.236Z,1.15
2022-11-19T09:18:40.101Z,1.27
2022-11-19T09:21:07.144Z,1.29
2022-11-19T09:23:33.702Z,1.27
2022-11-19T09:26:01.920Z,1.24
2022-11-19T09:28:29.021Z,1.24
2022-11-19T09:30:56.131Z,1.27
2022-11-19T09:33:22.674Z,1.32
2022-11-19T09:35:49.176Z,1.32
2022-11-19T09:38:15.716Z,1.31
2022-11-19T09:40:46.240Z,1.29
2022-11-19T09:43:21.029Z,1.26
2022-11-19T09:45:50.459Z,1.21
2022-11-19T09:48:19.752Z,1.19
2022-11-19T09:50:53.474Z,1.16
2022-11-19T09:53:21.461Z,1.11
2022-11-19T09:55:49.283Z,1.11
2022-11-19T09:58:20.102Z,1.17
2022-11-19T10:00:46.485Z,1.28
2022-11-19T10:03:17.672Z,1.48
2022-11-19T10:05:50.089Z,1.68
2022-11-19T10:08:36.768Z,1.85
2022-11-19T10:37:20.125Z,2.81
2022-11-19T10:39:56.385Z,2.82
2022-11-19T10:42:29.160Z,2.85
2022-11-19T10:44:59.277Z,2.85
2022-11-19T10:47:31.788Z,2.85
2022-11-19T10:49:58.219Z,2.88
2022-11-19T10:52:29.885Z,2.83
2022-11-19T10:55:12.867Z,2.84
2022-11-19T10:57:40.872Z,2.77
2022-11-19T11:00:07.560Z,2.70
2022-11-19T11:02:57.263Z,2.68
2022-11-19T11:05:23.539Z,2.67
2022-11-19T11:07:54.532Z,2.68
2022-11-19T11:10:23.704Z,2.69
2022-11-19T11:13:08.763Z,2.70
2022-11-19T11:15:35.101Z,2.75
2022-11-19T11:18:08.897Z,2.78
2022-11-19T11:20:36.320Z,2.83
2022-11-19T11:23:09.033Z,2.78
2022-11-19T11:25:36.327Z,2.78
2022-11-19T11:28:22.293Z,2.76
2022-11-19T11:30:58.901Z,2.81
2022-11-19T11:33:42.096Z,2.85
2022-11-19T11:36:14.588Z,2.97
2022-11-19T11:38:45.092Z,3.03
2022-11-19T11:44:19.785Z,3.17
2022-11-19T11:46:46.705Z,3.17
2022-11-19T11:49:18.971Z,3.12
2022-11-19T11:56:34.098Z,3.00
2022-11-19T11:58:40.684Z,3.06
2022-11-19T12:01:16.266Z,3.11
2022-11-19T12:03:55.199Z,3.15
2022-11-19T12:06:33.165Z,3.08
2022-11-19T12:09:07.705Z,3.11
2022-11-19T12:12:19.799Z,3.14
2022-11-19T12:14:56.343Z,3.15
2022-11-19T12:17:31.787Z,3.02
2022-11-19T12:20:08.939Z,2.94
2022-11-19T12:22:53.353Z,2.89
2022-11-19T12:25:35.029Z,2.77
2022-11-19T12:28:16.685Z,2.72
2022-11-19T12:30:48.972Z,2.67
2022-11-19T12:33:21.379Z,2.63
2022-11-19T12:35:56.962Z,2.60
2022-11-19T12:38:33.255Z,2.65
2022-11-19T12:41:12.521Z,2.66
2022-11-19T12:44:25.584Z,2.59
2022-11-19T12:46:54.619Z,2.61
2022-11-19T12:49:30.142Z,2.59
2022-11-19T12:52:05.510Z,2.61
2022-11-19T12:54:47.197Z,2.65
2022-11-19T12:57:34.884Z,2.71
2022-11-19T13:00:13.445Z,2.72
2022-11-19T13:03:01.996Z,2.72
2022-11-19T13:05:40.995Z,2.73
2022-11-19T13:08:10.644Z,2.76
2022-11-19T13:10:41.504Z,2.76
2022-11-19T13:13:09.739Z,2.79
2022-11-19T13:15:39.164Z,2.82
2022-11-19T13:18:10.595Z,2.83
2022-11-19T13:20:45.820Z,2.88
2022-11-19T13:23:19.020Z,2.92
2022-11-19T13:25:51.422Z,2.93
2022-11-19T13:28:22.792Z,2.88
2022-11-19T13:30:53.516Z,2.85
2022-11-19T13:33:26.404Z,2.84
2022-11-19T13:36:03.382Z,2.76
2022-11-19T13:38:46.547Z,2.74
2022-11-19T13:41:30.020Z,2.72
2022-11-19T13:44:36.686Z,2.72
2022-11-19T13:47:05.408Z,2.67
2022-11-19T13:49:36.921Z,2.62
2022-11-19T13:52:15.937Z,2.56
2022-11-19T13:54:46.204Z,2.51
2022-11-19T13:57:29.714Z,2.50
2022-11-19T14:00:23.777Z,2.46
2022-11-19T14:03:10.377Z,2.43
2022-11-19T14:06:06.698Z,2.41
2022-11-19T14:09:11.152Z,2.40
2022-11-19T14:12:01.436Z,2.36
2022-11-19T14:14:54.788Z,2.32
2022-11-19T14:18:02.021Z,2.27
2022-11-19T14:20:59.158Z,2.25
2022-11-19T14:24:04.957Z,2.23
2022-11-19T14:26:40.238Z,2.23
2022-11-19T14:29:28.213Z,2.22
2022-11-19T14:32:10.812Z,2.23
2022-11-19T14:34:42.845Z,2.22
2022-11-19T14:37:21.446Z,2.24
2022-11-19T14:40:15.849Z,2.26
2022-11-19T14:43:35.064Z,2.29
2022-11-19T14:46:07.650Z,2.29
2022-11-19T14:48:48.208Z,2.29
2022-11-19T14:51:15.990Z,2.32
2022-11-19T14:54:01.225Z,2.37
2022-11-19T14:56:36.810Z,2.38
2022-11-19T14:59:27.159Z,2.36
2022-11-19T15:02:04.748Z,2.31
2022-11-19T15:04:41.022Z,2.21
2022-11-19T15:21:28.432Z,1.51
2022-11-19T15:53:01.474Z,1.20
2022-11-19T15:55:31.996Z,1.19
2022-11-19T15:58:13.661Z,1.17
2022-11-19T16:00:44.670Z,1.11
2022-11-19T16:03:11.963Z,1.08
2022-11-19T16:05:39.352Z,1.03
2022-11-19T16:08:07.322Z,1.01
2022-11-19T16:10:34.933Z,1.00
2022-11-19T16:13:38.009Z,0.96
2022-11-19T16:16:32.199Z,0.94
2022-11-19T16:18:58.595Z,0.92
2022-11-19T16:21:27.541Z,0.93
2022-11-19T16:24:13.639Z,0.88
2022-11-19T16:26:41.063Z,0.85
2022-11-19T16:32:34.101Z,0.80
2022-11-19T16:35:10.855Z,0.77
2022-11-19T16:37:37.626Z,0.73
2022-11-19T16:40:04.168Z,0.67
2022-11-19T16:42:33.880Z,0.65
2022-11-19T16:45:08.603Z,0.67
2022-11-19T16:47:40.129Z,0.63
2022-11-19T16:50:19.141Z,0.59
2022-11-19T16:52:48.571Z,0.43
2022-11-19T16:55:18.148Z,0.31
2022-11-19T16:57:48.632Z,0.20
2022-11-19T17:00:17.476Z,0.12
2022-11-19T17:02:46.623Z,0.05
2022-11-19T17:05:13.037Z,0.01
2022-11-19T17:07:42.461Z,0.03
2022-11-19T17:10:26.081Z,-0.01
2022-11-19T17:12:54.040Z,-0.01
2022-11-19T17:15:20.397Z,-0.06
2022-11-19T17:17:46.836Z,-0.07
2022-11-19T17:20:29.379Z,-0.14
2022-11-19T17:22:59.733Z,-0.16
2022-11-19T17:25:26.282Z,-0.15
2022-11-19T17:27:57.462Z,-0.16
2022-11-19T17:30:25.181Z,-0.14
2022-11-19T17:32:56.997Z,-0.11
2022-11-19T17:35:40.100Z,-0.08
2022-11-19T17:38:12.707Z,-0.07
2022-11-19T17:40:45.276Z,-0.05
2022-11-19T17:43:30.826Z,0.00
2022-11-19T17:45:57.257Z,0.02
2022-11-19T17:48:25.177Z,-0.02
2022-11-19T17:50:51.745Z,0.01
2022-11-19T17:53:18.955Z,0.02
2022-11-19T17:55:45.821Z,0.04
2022-11-19T17:58:12.197Z,0.06
2022-11-19T18:00:38.958Z,0.06
2022-11-19T18:03:05.340Z,0.06
2022-11-19T18:05:33.575Z,0.08
2022-11-19T18:08:00.074Z,0.10
2022-11-19T18:10:26.605Z,0.16
2022-11-19T18:12:53.317Z,0.19
2022-11-19T18:15:20.429Z,0.23
2022-11-19T18:17:47.066Z,0.25
2022-11-19T18:20:13.758Z,0.27
2022-11-19T18:22:40.364Z,0.25
2022-11-19T18:25:12.669Z,0.29
2022-11-19T18:27:39.027Z,0.30
2022-11-19T18:30:05.588Z,0.31
2022-11-19T18:32:32.233Z,0.30
2022-11-19T18:35:01.779Z,0.23
2022-11-19T18:37:29.324Z,0.15
2022-11-19T18:39:56.122Z,0.07
2022-11-19T18:42:22.543Z,0.05
2022-11-19T18:44:49.167Z,-0.01
2022-11-19T18:47:15.885Z,-0.04
2022-11-19T18:49:42.356Z,-0.09
2022-11-19T18:52:11.209Z,-0.10
2022-11-19T18:54:37.571Z,-0.10
2022-11-19T18:57:03.966Z,-0.12
2022-11-19T18:59:30.468Z,-0.12
2022-11-19T19:01:57.115Z,-0.10
2022-11-19T19:04:24.149Z,-0.09
2022-11-19T19:06:52.078Z,-0.10
2022-11-19T19:09:20.505Z,-0.06
2022-11-19T19:12:11.408Z,-0.05
2022-11-19T19:14:39.663Z,-0.03
2022-11-19T19:17:06.064Z,-0.05
2022-11-19T19:19:32.493Z,-0.05
2022-11-19T19:21:58.983Z,-0.06
2022-11-19T19:24:25.625Z,-0.07
2022-11-19T19:26:52.045Z,-0.07
2022-11-19T19:29:18.423Z,-0.11
2022-11-19T19:31:45.025Z,-0.13
2022-11-19T19:34:11.922Z,-0.11
2022-11-19T19:36:38.602Z,-0.11
2022-11-19T19:39:05.146Z,-0.10
2022-11-19T19:41:31.936Z,-0.09
2022-11-19T19:43:59.994Z,-0.11
2022-11-19T19:46:26.974Z,-0.14
2022-11-19T19:48:54.324Z,-0.16
2022-11-19T19:51:22.095Z,-0.21
2022-11-19T19:53:48.713Z,-0.21
2022-11-19T19:56:15.177Z,-0.28
2022-11-19T19:58:43.917Z,-0.30
2022-11-19T20:01:11.327Z,-0.32
2022-11-19T20:03:37.908Z,-0.31
2022-11-19T20:06:05.317Z,-0.34
2022-11-19T20:08:32.810Z,-0.37
2022-11-19T20:11:03.958Z,-0.39
2022-11-19T20:13:32.816Z,-0.40
2022-11-19T20:16:03.437Z,-0.35
2022-11-19T20:18:31.925Z,-0.34
2022-11-19T20:21:00.247Z,-0.32
2022-11-19T20:23:28.033Z,-0.29
2022-11-19T20:26:05.736Z,-0.31
2022-11-19T20:28:32.389Z,-0.36
2022-11-19T20:31:06.374Z,-0.40
2022-11-19T20:33:33.857Z,-0.48
2022-11-19T20:36:02.286Z,-0.58
2022-11-19T20:38:30.001Z,-0.64
2022-11-19T20:41:01.507Z,-0.68
2022-11-19T20:43:52.638Z,-0.70
2022-11-19T20:46:23.615Z,-0.75
2022-11-19T20:48:50.252Z,-0.73
2022-11-19T20:51:19.731Z,-0.69
2022-11-19T20:53:46.127Z,-0.66
2022-11-19T20:56:14.982Z,-0.69
2022-11-19T20:58:45.777Z,-0.66
2022-11-19T21:01:12.282Z,-0.71
2022-11-19T21:03:39.299Z,-0.68
2022-11-19T21:06:07.564Z,-0.68
2022-11-19T21:08:37.173Z,-0.68
2022-11-19T21:11:05.376Z,-0.65
2022-11-19T21:13:32.369Z,-0.64
2022-11-19T21:15:59.277Z,-0.62
2022-11-19T21:18:26.131Z,-0.61
2022-11-19T21:20:52.674Z,-0.58
2022-11-19T21:23:21.784Z,-0.59
2022-11-19T21:25:48.186Z,-0.56
2022-11-19T21:28:14.702Z,-0.53
2022-11-19T21:30:41.675Z,-0.51
2022-11-19T21:33:08.156Z,-0.54
2022-11-19T21:35:39.173Z,-0.50
2022-11-19T21:38:10.848Z,-0.48
2022-11-19T21:40:38.675Z,-0.48
2022-11-19T21:43:05.841Z,-0.48
2022-11-19T21:45:32.394Z,-0.47
2022-11-19T21:47:58.929Z,-0.51
2022-11-19T21:50:25.356Z,-0.49
2022-11-19T21:52:51.747Z,-0.50
2022-11-19T21:55:18.106Z,-0.56
2022-11-19T21:57:44.478Z,-0.63
2022-11-19T22:00:11.648Z,-0.67
2022-11-19T22:02:38.036Z,-0.70
2022-11-19T22:05:04.515Z,-0.73
2022-11-19T22:07:31.195Z,-0.74
2022-11-19T22:09:57.693Z,-0.73
2022-11-19T22:12:26.662Z,-0.71
2022-11-19T22:14:53.142Z,-0.72
2022-11-19T22:17:19.482Z,-0.72
2022-11-19T22:19:45.867Z,-0.72
2022-11-19T22:22:12.221Z,-0.71
2022-11-19T22:24:38.629Z,-0.71
2022-11-19T22:27:05.017Z,-0.72
2022-11-19T22:29:31.402Z,-0.73
2022-11-19T22:31:58.315Z,-0.72
2022-11-19T22:34:25.017Z,-0.72
2022-11-19T22:36:51.471Z,-0.72
2022-11-19T22:39:18.753Z,-0.72
2022-11-19T22:41:45.508Z,-0.73
2022-11-19T22:44:12.546Z,-0.73
2022-11-19T22:46:39.813Z,-0.71
2022-11-19T22:49:06.276Z,-0.72
2022-11-19T22:51:32.702Z,-0.72
2022-11-19T22:53:59.120Z,-0.71
2022-11-19T22:56:27.386Z,-0.70
2022-11-19T22:58:54.301Z,-0.69
2022-11-19T23:01:25.309Z,-0.71
2022-11-19T23:03:52.541Z,-0.72
2022-11-19T23:06:19.671Z,-0.76
2022-11-19T23:08:50.071Z,-0.79
2022-11-19T23:11:39.674Z,-0.82
2022-11-19T23:14:06.988Z,-0.83
2022-11-19T23:16:33.656Z,-0.85
2022-11-19T23:19:00.012Z,-0.84
2022-11-19T23:21:28.033Z,-0.83
2022-11-19T23:23:55.203Z,-0.82
2022-11-19T23:26:23.289Z,-0.80
2022-11-19T23:28:49.993Z,-0.77
2022-11-19T23:31:27.349Z,-0.76
2022-11-19T23:33:58.814Z,-0.76
2022-11-19T23:36:28.129Z,-0.72
2022-11-19T23:38:54.714Z,-0.71
2022-11-19T23:41:21.946Z,-0.72
2022-11-19T23:43:53.236Z,-0.73
2022-11-19T23:46:27.034Z,-0.72
2022-11-19T23:48:54.661Z,-0.72
2022-11-19T23:51:22.570Z,-0.72
2022-11-19T23:53:48.960Z,-0.69
2022-11-19T23:56:16.060Z,-0.70
2022-11-19T23:58:42.834Z,-0.72
